| time (UTC) | temp F | wind direction | speed knots | gust knots | rain 1hr in | rain 24hr in | rain mn in | humidity % | barometer mb |
| 20260510022624 | 79 | 103 | 4.3 | 6.1 | 0.00 | 0.00 | 0.00 | 100 | 1022.1 |
| 20260510022208 | 78 | 112 | 0.0 | 7.0 | 0.00 | 0.00 | 0.00 | 100 | 1022.0 |
| 20260510021906 | 78 | 108 | 6.1 | 7.0 | 0.00 | 0.00 | 0.00 | 100 | 1022.1 |
| 20260510021606 | 78 | 112 | 0.9 | 7.8 | 0.00 | 0.00 | 0.00 | 100 | 1022.1 |
| 20260510020930 | 78 | 109 | 5.2 | 5.2 | 0.00 | 0.00 | 0.00 | 100 | 1022.1 |
| 20260510020550 | 78 | 112 | 0.9 | 5.2 | 0.00 | 0.00 | 0.00 | 100 | 1022.2 |
| 20260510020139 | 79 | 99 | 5.2 | 5.2 | 0.00 | 0.00 | 0.00 | 100 | 1022.1 |
| 20260510015556 | 79 | 98 | 0.9 | 7.0 | 0.00 | 0.00 | 0.00 | 100 | 1022.2 |
| 20260510014849 | 78 | 112 | 0.9 | 7.8 | 0.00 | 0.00 | 0.00 | 100 | 1022.3 |
| 20260510014546 | 78 | 109 | 6.1 | 7.8 | 0.00 | 0.00 | 0.00 | 100 | 1022.3 |
| 20260510014246 | 78 | 97 | 0.9 | 7.0 | 0.00 | 0.00 | 0.00 | 100 | 1022.3 |
| 20260510013946 | 77 | 106 | 6.1 | 8.7 | 0.00 | 0.00 | 0.00 | 100 | 1022.3 |
| 20260510013451 | 77 | 98 | 1.7 | 7.0 | 0.00 | 0.00 | 0.00 | 100 | 1022.2 |
| 20260510013114 | 77 | 108 | 6.1 | 6.1 | 0.00 | 0.00 | 0.00 | 100 | 1022.3 |
| 20260510012711 | 77 | 94 | 1.7 | 7.0 | 0.00 | 0.00 | 0.00 | 100 | 1022.4 |
| 20260510012410 | 77 | 108 | 7.0 | 7.0 | 0.00 | 0.00 | 0.00 | 100 | 1022.3 |
| 20260510012107 | 77 | 100 | 1.7 | 4.3 | 0.00 | 0.00 | 0.00 | 100 | 1022.5 |
| 20260510011107 | 76 | 96 | 3.5 | 8.7 | 0.00 | 0.00 | 0.00 | 100 | 1022.6 |
| 20260510010106 | 76 | 102 | 5.2 | 7.0 | 0.00 | 0.00 | 0.00 | 100 | 1022.8 |
| 20260510005702 | 76 | 112 | 0.9 | 5.2 | 0.00 | 0.00 | 0.00 | 100 | 1022.8 |
| 20260510004756 | 76 | 104 | 5.2 | 5.2 | 0.00 | 0.00 | 0.00 | 100 | 1023.0 |
| 20260510004424 | 76 | 112 | 0.9 | 3.5 | 0.00 | 0.00 | 0.00 | 100 | 1022.9 |
| 20260510003424 | 76 | 106 | 0.9 | 8.7 | 0.00 | 0.00 | 0.00 | 100 | 1023.2 |
| 20260510003123 | 76 | 72 | 7.8 | 7.8 | 0.00 | 0.00 | 0.00 | 100 | 1023.3 |
| 20260510002339 | 76 | 72 | 3.5 | 5.2 | 0.00 | 0.00 | 0.00 | 100 | 1023.4 |
| 20260510001336 | 75 | 90 | 1.7 | 4.3 | 0.00 | 0.00 | 0.00 | 100 | 1023.6 |
| 20260510000337 | 74 | 73 | 1.7 | 7.0 | 0.00 | 0.00 | 0.00 | 100 | 1023.4 |
| 20260509235941 | 74 | 79 | 6.1 | 6.1 | 0.00 | 0.00 | 0.00 | 100 | 1023.3 |
| 20260509235323 | 73 | 98 | 0.9 | 7.8 | 0.00 | 0.00 | 0.00 | 100 | 1023.3 |
| 20260509235023 | 73 | 74 | 7.0 | 7.0 | 0.00 | 0.00 | 0.00 | 100 | 1023.2 |
| 20260509234244 | 73 | 95 | 1.7 | 5.2 | 0.00 | 0.00 | 0.00 | 100 | 1022.9 |
| 20260509233244 | 72 | 99 | 1.7 | 3.5 | 0.00 | 0.00 | 0.00 | 100 | 1023.1 |
| 20260509232245 | 71 | 94 | 1.7 | 7.8 | 0.00 | 0.00 | 0.00 | 100 | 1023.1 |
| 20260509231856 | 71 | 78 | 6.1 | 6.1 | 0.00 | 0.00 | 0.00 | 100 | 1023.0 |
| 20260509231429 | 71 | 104 | 0.9 | 7.0 | 0.00 | 0.00 | 0.00 | 100 | 1022.8 |
| 20260509231130 | 71 | 71 | 6.1 | 6.1 | 0.00 | 0.00 | 0.00 | 100 | 1022.7 |
| 20260509230715 | 71 | 75 | 0.9 | 4.3 | 0.00 | 0.00 | 0.00 | 100 | 1022.6 |
| 20260509225716 | 70 | 87 | 1.7 | 6.1 | 0.00 | 0.00 | 0.00 | 100 | 1022.7 |
| 20260509225317 | 70 | 70 | 6.1 | 6.1 | 0.00 | 0.00 | 0.00 | 100 | 1022.7 |
| 20260509224922 | 70 | 108 | 1.7 | 5.2 | 0.00 | 0.00 | 0.00 | 100 | 1022.7 |
| 20260509223921 | 69 | 112 | 0.9 | 4.3 | 0.00 | 0.00 | 0.00 | 100 | 1022.7 |
| 20260509223314 | 69 | 74 | 5.2 | 5.2 | 0.00 | 0.00 | 0.00 | 100 | 1022.9 |
| 20260509222931 | 69 | 109 | 0.9 | 3.5 | 0.00 | 0.00 | 0.00 | 100 | 1023.0 |
| 20260509221932 | 68 | 112 | 0.9 | 3.5 | 0.00 | 0.00 | 0.00 | 100 | 1022.7 |
| 20260509220932 | 68 | 87 | 1.7 | 5.2 | 0.00 | 0.00 | 0.00 | 100 | 1022.4 |
| 20260509220630 | 67 | 70 | 6.1 | 6.1 | 0.00 | 0.00 | 0.00 | 100 | 1022.3 |
| 20260509220122 | 67 | 97 | 1.7 | 8.7 | 0.00 | 0.00 | 0.00 | 100 | 1022.2 |
| 20260509215644 | 67 | 96 | 6.1 | 8.7 | 0.00 | 0.00 | 0.00 | 100 | 1022.3 |
| 20260509215334 | 67 | 105 | 1.7 | 7.0 | 0.00 | 0.00 | 0.00 | 100 | 1022.3 |
| 20260509214534 | 67 | 77 | 6.1 | 6.1 | 0.00 | 0.00 | 0.00 | 100 | 1022.5 |
| 20260509214002 | 67 | 98 | 1.7 | 7.0 | 0.00 | 0.00 | 0.00 | 100 | 1022.7 |
| 20260509213555 | 66 | 67 | 6.1 | 6.1 | 0.00 | 0.00 | 0.00 | 100 | 1022.6 |
| 20260509212643 | 66 | 91 | 0.9 | 3.5 | 0.00 | 0.00 | 0.00 | 100 | 1022.5 |
| 20260509211644 | 66 | 93 | 2.6 | 4.3 | 0.00 | 0.00 | 0.00 | 100 | 1022.3 |
| 20260509210641 | 66 | 108 | 1.7 | 3.5 | 0.00 | 0.00 | 0.00 | 100 | 1022.2 |
| 20260509205641 | 66 | 76 | 2.6 | 4.3 | 0.00 | 0.00 | 0.00 | 100 | 1022.3 |
| 20260509204641 | 66 | 81 | 0.9 | 3.5 | 0.00 | 0.00 | 0.00 | 100 | 1021.9 |
| 20260509203639 | 65 | 92 | 2.6 | 6.1 | 0.00 | 0.00 | 0.00 | 100 | 1021.6 |
| 20260509202638 | 65 | 75 | 2.6 | 4.3 | 0.00 | 0.00 | 0.00 | 100 | 1021.5 |
| 20260509201638 | 65 | 90 | 1.7 | 3.5 | 0.00 | 0.00 | 0.00 | 100 | 1021.6 |
| 20260509200634 | 65 | 94 | 0.9 | 5.2 | 0.00 | 0.00 | 0.00 | 100 | 1021.3 |
| 20260509195636 | 65 | 93 | 4.3 | 4.3 | 0.00 | 0.00 | 0.00 | 100 | 1021.2 |
| 20260509194635 | 65 | 73 | 3.5 | 3.5 | 0.00 | 0.00 | 0.00 | 100 | 1021.3 |
| 20260509193633 | 65 | 110 | 0.0 | 3.5 | 0.00 | 0.00 | 0.00 | 100 | 1021.2 |
| 20260509192632 | 65 | 87 | 3.5 | 3.5 | 0.00 | 0.00 | 0.00 | 100 | 1021.1 |
| 20260509191633 | 66 | 88 | 1.7 | 3.5 | 0.00 | 0.00 | 0.00 | 100 | 1020.8 |
| 20260509190630 | 66 | 93 | 2.6 | 3.5 | 0.00 | 0.00 | 0.00 | 100 | 1020.6 |
| 20260509185630 | 66 | 108 | 0.9 | 2.6 | 0.00 | 0.00 | 0.00 | 100 | 1020.6 |
| 20260509184630 | 66 | 108 | 1.7 | 1.7 | 0.00 | 0.00 | 0.00 | 100 | 1020.6 |
| 20260509183627 | 66 | 86 | 2.6 | 3.5 | 0.00 | 0.00 | 0.00 | 100 | 1020.4 |
| 20260509182627 | 66 | 98 | 1.7 | 2.6 | 0.00 | 0.00 | 0.00 | 100 | 1020.3 |
| 20260509181625 | 66 | 83 | 0.9 | 3.5 | 0.00 | 0.00 | 0.00 | 100 | 1020.3 |
| 20260509180625 | 66 | 87 | 0.9 | 3.5 | 0.00 | 0.00 | 0.00 | 100 | 1020.3 |
| 20260509175624 | 67 | 87 | 0.9 | 3.5 | 0.00 | 0.00 | 0.00 | 100 | 1020.0 |
| 20260509174624 | 67 | 95 | 2.6 | 3.5 | 0.00 | 0.00 | 0.00 | 100 | 1020.1 |
| 20260509173622 | 67 | 92 | 0.9 | 4.3 | 0.00 | 0.00 | 0.00 | 100 | 1020.0 |
| 20260509172621 | 67 | 77 | 3.5 | 5.2 | 0.00 | 0.00 | 0.00 | 100 | 1020.1 |
| 20260509171621 | 67 | 87 | 1.7 | 2.6 | 0.00 | 0.00 | 0.00 | 100 | 1020.1 |
| 20260509170619 | 67 | 74 | 1.7 | 5.2 | 0.00 | 0.00 | 0.00 | 100 | 1020.1 |
| 20260509165618 | 66 | 91 | 2.6 | 4.3 | 0.00 | 0.00 | 0.00 | 100 | 1020.2 |
| 20260509164619 | 66 | 100 | 1.7 | 4.3 | 0.00 | 0.00 | 0.00 | 100 | 1020.2 |
| 20260509163617 | 66 | 99 | 3.5 | 5.2 | 0.00 | 0.00 | 0.00 | 100 | 1020.3 |
| 20260509162616 | 66 | 67 | 2.6 | 3.5 | 0.00 | 0.00 | 0.00 | 100 | 1020.3 |
| 20260509161617 | 66 | 81 | 2.6 | 5.2 | 0.00 | 0.00 | 0.00 | 100 | 1020.4 |
| 20260509160614 | 66 | 95 | 2.6 | 4.3 | 0.00 | 0.00 | 0.00 | 100 | 1020.4 |
| 20260509155613 | 66 | 103 | 1.7 | 7.0 | 0.00 | 0.00 | 0.00 | 100 | 1020.4 |
| 20260509154940 | 66 | 92 | 1.7 | 8.7 | 0.00 | 0.00 | 0.00 | 100 | 1020.4 |
| 20260509154630 | 66 | 87 | 6.1 | 8.7 | 0.00 | 0.00 | 0.00 | 100 | 1020.5 |
| 20260509154330 | 66 | 106 | 1.7 | 6.1 | 0.00 | 0.00 | 0.00 | 100 | 1020.6 |
| 20260509153950 | 66 | 78 | 6.1 | 6.1 | 0.00 | 0.00 | 0.00 | 100 | 1020.6 |
| 20260509153619 | 66 | 85 | 1.7 | 3.5 | 0.00 | 0.00 | 0.00 | 100 | 1020.6 |
| 20260509152619 | 66 | 86 | 3.5 | 5.2 | 0.00 | 0.00 | 0.00 | 100 | 1020.7 |
| 20260509151617 | 66 | 98 | 1.7 | 5.2 | 0.00 | 0.00 | 0.00 | 100 | 1020.8 |
| 20260509145750 | 66 | 95 | 1.7 | 7.8 | 0.00 | 0.00 | 0.00 | 100 | 1020.8 |
| 20260509145412 | 66 | 75 | 6.1 | 6.1 | 0.00 | 0.00 | 0.00 | 100 | 1020.9 |
| 20260509144723 | 66 | 88 | 1.7 | 6.1 | 0.00 | 0.00 | 0.00 | 100 | 1021.1 |
| 20260509144419 | 66 | 75 | 7.0 | 7.0 | 0.00 | 0.00 | 0.00 | 100 | 1021.2 |
| 20260509143751 | 66 | 90 | 1.7 | 5.2 | 0.00 | 0.00 | 0.00 | 100 | 1021.2 |
| 20260509142751 | 66 | 82 | 2.6 | 5.2 | 0.00 | 0.00 | 0.00 | 100 | 1021.3 |
| 20260509140748 | 66 | 74 | 2.6 | 3.5 | 0.00 | 0.00 | 0.00 | 100 | 1021.5 |
| 20260509135748 | 66 | 82 | 0.0 | 2.6 | 0.00 | 0.00 | 0.00 | 100 | 1021.5 |
| 20260509134746 | 66 | 99 | 0.9 | 2.6 | 0.00 | 0.00 | 0.00 | 100 | 1021.5 |
| 20260509133745 | 66 | 95 | 0.9 | 3.5 | 0.00 | 0.00 | 0.00 | 100 | 1021.5 |
| 20260509132745 | 66 | 112 | 1.7 | 2.6 | 0.00 | 0.00 | 0.00 | 100 | 1021.6 |
| 20260509130742 | 67 | 102 | 0.9 | 3.5 | 0.00 | 0.00 | 0.00 | 100 | 1021.8 |
| 20260509125742 | 67 | 112 | 0.9 | 2.6 | 0.00 | 0.00 | 0.00 | 100 | 1021.8 |
| 20260509124740 | 67 | 94 | 2.6 | 2.6 | 0.00 | 0.00 | 0.00 | 100 | 1021.7 |
| 20260509123740 | 67 | 110 | 1.7 | 4.3 | 0.00 | 0.00 | 0.00 | 100 | 1021.7 |
| 20260509122740 | 67 | 109 | 0.9 | 3.5 | 0.00 | 0.00 | 0.00 | 100 | 1021.7 |
| 20260509121738 | 67 | 98 | 1.7 | 3.5 | 0.00 | 0.00 | 0.00 | 100 | 1021.7 |
| 20260509120737 | 67 | 98 | 0.9 | 3.5 | 0.00 | 0.00 | 0.00 | 100 | 1021.7 |
| 20260509115737 | 67 | 112 | 0.9 | 2.6 | 0.00 | 0.00 | 0.00 | 100 | 1021.9 |
| 20260509113734 | 67 | 86 | 0.9 | 2.6 | 0.00 | 0.00 | 0.00 | 100 | 1021.9 |
| 20260509112734 | 67 | 75 | 1.7 | 2.6 | 0.00 | 0.00 | 0.00 | 100 | 1021.9 |
| 20260509111733 | 68 | 102 | 1.7 | 2.6 | 0.00 | 0.00 | 0.00 | 100 | 1021.9 |
| 20260509110731 | 68 | 112 | 0.0 | 2.6 | 0.00 | 0.00 | 0.00 | 100 | 1021.9 |
| 20260509105731 | 68 | 107 | 0.9 | 3.5 | 0.00 | 0.00 | 0.00 | 100 | 1021.9 |
| 20260509104730 | 68 | 112 | 0.9 | 3.5 | 0.00 | 0.00 | 0.00 | 100 | 1021.7 |
| 20260509103728 | 68 | 112 | 0.9 | 2.6 | 0.00 | 0.00 | 0.00 | 100 | 1021.7 |
| 20260509102729 | 68 | 112 | 0.9 | 2.6 | 0.00 | 0.00 | 0.00 | 100 | 1021.7 |
| 20260509101726 | 69 | 112 | 0.9 | 2.6 | 0.00 | 0.00 | 0.00 | 100 | 1021.5 |
| 20260509095726 | 69 | 112 | 1.7 | 3.5 | 0.00 | 0.00 | 0.00 | 100 | 1021.3 |
| 20260509094724 | 69 | 112 | 0.9 | 1.7 | 0.00 | 0.00 | 0.00 | 100 | 1021.1 |
| 20260509093723 | 69 | 85 | 2.6 | 3.5 | 0.00 | 0.00 | 0.00 | 100 | 1021.1 |
| 20260509091721 | 70 | 108 | 1.7 | 4.3 | 0.00 | 0.00 | 0.00 | 100 | 1020.9 |
| 20260509090720 | 70 | 112 | 0.9 | 4.3 | 0.00 | 0.00 | 0.00 | 100 | 1020.8 |
| 20260509085720 | 70 | 112 | 0.9 | 4.3 | 0.00 | 0.00 | 0.00 | 100 | 1020.6 |
| 20260509084354 | 70 | 78 | 4.3 | 4.3 | 0.00 | 0.00 | 0.00 | 100 | 1020.5 |
| 20260509083417 | 71 | 111 | 4.3 | 4.3 | 0.00 | 0.00 | 0.00 | 100 | 1020.3 |
| 20260509082637 | 71 | 87 | 0.0 | 2.6 | 0.00 | 0.00 | 0.00 | 100 | 1020.3 |
| 20260509081635 | 71 | 109 | 1.7 | 5.2 | 0.00 | 0.00 | 0.00 | 100 | 1020.1 |
| 20260509080308 | 71 | 106 | 6.1 | 6.1 | 0.00 | 0.00 | 0.00 | 100 | 1019.9 |
| 20260509075333 | 71 | 111 | 1.7 | 5.2 | 0.00 | 0.00 | 0.00 | 100 | 1019.6 |
| 20260509074332 | 72 | 108 | 1.7 | 5.2 | 0.00 | 0.00 | 0.00 | 100 | 1019.6 |
| 20260509073332 | 72 | 108 | 1.7 | 3.5 | 0.00 | 0.00 | 0.00 | 100 | 1019.5 |
| 20260509072331 | 72 | 112 | 0.9 | 3.5 | 0.00 | 0.00 | 0.00 | 100 | 1019.3 |
| 20260509071330 | 72 | 85 | 0.0 | 6.1 | 0.00 | 0.00 | 0.00 | 100 | 1019.2 |
| 20260509070744 | 73 | 106 | 4.3 | 5.2 | 0.00 | 0.00 | 0.00 | 100 | 1019.1 |
| 20260509070435 | 73 | 112 | 0.0 | 5.2 | 0.00 | 0.00 | 0.00 | 100 | 1019.1 |
| 20260509065434 | 73 | 98 | 4.3 | 4.3 | 0.00 | 0.00 | 0.00 | 100 | 1019.1 |
| 20260509064307 | 73 | 111 | 6.1 | 7.8 | 0.00 | 0.00 | 0.00 | 100 | 1018.8 |
| 20260509063959 | 73 | 100 | 1.7 | 7.8 | 0.00 | 0.00 | 0.00 | 100 | 1018.7 |
| 20260509063658 | 73 | 112 | 7.0 | 7.0 | 0.00 | 0.00 | 0.00 | 100 | 1018.8 |
| 20260509062758 | 74 | 105 | 2.6 | 7.0 | 0.00 | 0.00 | 0.00 | 100 | 1018.7 |
| 20260509062421 | 74 | 111 | 7.0 | 8.7 | 0.00 | 0.00 | 0.00 | 100 | 1018.6 |
| 20260509062119 | 74 | 99 | 2.6 | 9.6 | 0.00 | 0.00 | 0.00 | 100 | 1018.6 |
| 20260509061820 | 74 | 111 | 10.4 | 10.4 | 0.00 | 0.00 | 0.00 | 100 | 1018.5 |
| 20260509061115 | 74 | 108 | 5.2 | 8.7 | 0.00 | 0.00 | 0.00 | 100 | 1018.5 |
| 20260509060752 | 74 | 112 | 0.0 | 7.0 | 0.00 | 0.00 | 0.00 | 100 | 1018.4 |
| 20260509060433 | 74 | 112 | 5.2 | 6.1 | 0.00 | 0.00 | 0.00 | 100 | 1018.4 |
| 20260509055939 | 74 | 101 | 0.0 | 8.7 | 0.00 | 0.00 | 0.00 | 100 | 1018.3 |
| 20260509055517 | 74 | 110 | 4.3 | 4.3 | 0.00 | 0.00 | 0.00 | 100 | 1018.3 |
| 20260509055000 | 75 | 112 | 0.0 | 5.2 | 0.00 | 0.00 | 0.00 | 100 | 1018.4 |
| 20260509054553 | 75 | 84 | 4.3 | 4.3 | 0.00 | 0.00 | 0.00 | 100 | 1018.2 |
| 20260509054204 | 75 | 105 | 0.0 | 5.2 | 0.00 | 0.00 | 0.00 | 100 | 1018.3 |
| 20260509053205 | 75 | 106 | 1.7 | 5.2 | 0.00 | 0.00 | 0.00 | 100 | 1018.2 |
| 20260509052202 | 76 | 104 | 2.6 | 6.1 | 0.00 | 0.00 | 0.00 | 100 | 1018.1 |
| 20260509051901 | 76 | 112 | 7.8 | 7.8 | 0.00 | 0.00 | 0.00 | 100 | 1018.1 |
| 20260509051601 | 76 | 108 | 1.7 | 5.2 | 0.00 | 0.00 | 0.00 | 100 | 1018.1 |
| 20260509051300 | 76 | 109 | 6.1 | 6.1 | 0.00 | 0.00 | 0.00 | 100 | 1018.0 |
| 20260509050513 | 77 | 112 | 1.7 | 7.0 | 0.00 | 0.00 | 0.00 | 100 | 1018.0 |
| 20260509050209 | 77 | 108 | 6.1 | 6.1 | 0.00 | 0.00 | 0.00 | 100 | 1017.8 |
| 20260509045224 | 77 | 104 | 1.7 | 6.1 | 0.00 | 0.00 | 0.00 | 100 | 1017.9 |
| 20260509044221 | 77 | 112 | 2.6 | 10.4 | 0.00 | 0.00 | 0.00 | 100 | 1018.0 |
| 20260509043848 | 77 | 108 | 7.0 | 7.0 | 0.00 | 0.00 | 0.00 | 100 | 1017.9 |
| 20260509043114 | 78 | 109 | 2.6 | 7.8 | 0.00 | 0.00 | 0.00 | 100 | 1018.1 |
| 20260509042746 | 78 | 111 | 7.0 | 7.8 | 0.00 | 0.00 | 0.00 | 100 | 1017.9 |
| 20260509042349 | 78 | 102 | 2.6 | 3.5 | 0.00 | 0.00 | 0.00 | 100 | 1017.9 |
| 20260509041346 | 79 | 112 | 0.9 | 5.2 | 0.00 | 0.00 | 0.00 | 100 | 1018.0 |
| 20260509040347 | 79 | 107 | 4.3 | 4.3 | 0.00 | 0.00 | 0.00 | 100 | 1017.9 |
| 20260509040016 | 79 | 112 | 0.0 | 4.3 | 0.00 | 0.00 | 0.00 | 100 | 1018.0 |
| 20260509035014 | 79 | 112 | 0.9 | 5.2 | 0.00 | 0.00 | 0.00 | 100 | 1017.9 |
| 20260509034015 | 80 | 104 | 4.3 | 4.3 | 0.00 | 0.00 | 0.00 | 96 | 1018.1 |
| 20260509033050 | 80 | 112 | 0.0 | 4.3 | 0.00 | 0.00 | 0.00 | 93 | 1018.1 |
| 20260509032748 | 80 | 108 | 5.2 | 5.2 | 0.00 | 0.00 | 0.00 | 93 | 1018.1 |
| 20260509032034 | 80 | 108 | 5.2 | 5.2 | 0.00 | 0.00 | 0.00 | 93 | 1018.2 |
| 20260509031528 | 80 | 112 | 0.9 | 4.3 | 0.00 | 0.00 | 0.00 | 92 | 1018.2 |
| 20260509030528 | 80 | 102 | 1.7 | 6.1 | 0.00 | 0.00 | 0.00 | 89 | 1018.3 |
| 20260509030209 | 80 | 106 | 6.1 | 6.1 | 0.00 | 0.00 | 0.00 | 90 | 1018.4 |
| 20260509025456 | 80 | 112 | 1.7 | 3.5 | 0.00 | 0.00 | 0.00 | 90 | 1018.6 |
| 20260509024457 | 80 | 100 | 1.7 | 5.2 | 0.00 | 0.00 | 0.00 | 91 | 1018.6 |
| 20260509023456 | 80 | 95 | 2.6 | 5.2 | 0.00 | 0.00 | 0.00 | 88 | 1018.7 |